METAR

METAR RPLL (MNL) – NINOY AQUINO INTERNATIONAL AIRPORT(MANILA INTERNATIONAL AIRPORT)
RPLL 171400Z 15004KT 050V200 9999 FEW025 29/24 Q1010 NOSIG RMK A2983
RPLL 171300Z 15006KT 110V190 9999 FEW025 30/23 Q1010 NOSIG RMK A2983
RPLL 171200Z 14006KT 080V200 9999 FEW025 30/23 Q1009 NOSIG RMK A2980
RPLL 171100Z VRB07KT 9999 FEW025 31/24 Q1008 NOSIG RMK A2977
RPLL 171000Z 13007KT 080V170 9999 FEW025 32/23 Q1008 RMK A2977
RPLL 170900Z 15006KT 080V200 9999 FEW025 34/223 Q1007 N0SIG RMK A2974
RPLL 170800Z 13006KT 080V200 9999 FEW025 35/22 Q1007 NOSIG RMK A2974
RPLL 170700Z 13008KT 090V190 9999 FEW025 35/21 Q1007 NOSIG RMK A2974
RPLL 170600Z 16006KT 090V230 9999 FEW025 36/21 Q1008 NOSIG RMK A2977
RPLL 170500Z 12008KT 070V160 9999 FEW025 35/22 Q1009 NOSIG RMK A2980
RPLL 170400Z 12006KT 060V170 9999 FEW025 34/22 Q1010 NOSIG RMK A2983
RPLL 170300Z 12007KT 060V180 9999 FEW025 33/22 Q1011 NOSIG RMK A2985
RPLL 170200Z 10006KT 030V150 9999 FEW025 32/22 Q1012 NOSIG RMK A2988
RPLL 170100Z 12005KT 070V200 9999 FEW025 32/21 Q1012 NOSIG RMK A2988
RPLL 170000Z 08007KT 060V120 9999 FEW025 30/21 Q1012 NOSIG RMK A2988
RPLL 162300Z 11005KT 050V160 9999 FEW025 29/22 Q1011 NOSIG RMK A2985
RPLL 162200Z 08005KT 9999 FEW025 27/23 Q1011 NOSIG RMK A2985
RPLL 162100Z 12006KT 090V160 9999 FEW025 27/23 Q1010 NOSIG RMK A2983
RPLL 162000Z 11006KT 080V150 9999 FEW025 27/23 Q1010 NOSIG RMK A2983
RPLL 161900Z 12005KT 070V170 9999 FEW025 28/23 Q1010 NOSIG RMK A2983
RPLL 161800Z 12005KT 060V160 9999 FEW025 28/23 Q1010 NOSIG RMK A2983
RPLL 161700Z 13005KT 080V160 9999 FEW025 28/23 Q1011 NOSIG RMK A2985
RPLL 161600Z 14005KT 100V210 9999 FEW025 29/23 Q1011 NOSIG RMK A2985
RPLL 161500Z 12007KT 080V160 9999 FEW025 29/23 Q1011 NOSIG RMK A2985
RPLL 161400Z 13008KT 080V180 9999 FEW025 30/23 Q1011 NOSIG RMK A2985
RPLL 161300Z 13009KT 090V180 9999 FEW025 30/23 Q1011 NOSIG RMK A2985
RPLL 161200Z 13007KT 080190 9999 FEW025 SCT100 31/24 Q1010 RMK A2983
RPLL 161100Z 14007KT 100V190 9999 FEW025 SCT100 31/23 Q1010 NOSIG RMK A2983
RPLL 161000Z 16007KT 110V230 9999 FEW025 SCT100 32/23 Q1009 NOSIG RMK A2980
RPLL 160900Z 13007KT 080V190 9999 FEW025 34/23 Q1008 NOSIG RMK A2977
RPLL 160800Z 13007KT 070V200 9999 FEW025 35/24 Q1008 NOSIG RMK A2977
RPLL 160700Z 15006KT 080V220 9999 FEW025 35/23 Q1008 RMK A2988
RPLL 160600Z 14006KT 080V250 9999 FEW025 35/23 Q1009 NOSIG RMK A2980
RPLL 160500Z 12008KT 080V150 9999 FEW025 35/23 Q1010 NOSIG RMK A2980
RPLL 160400Z VRB06KT 9999 FEW025 35/22 Q1011 NOSIG RMK A2985
RPLL 160300Z 10008KT 9999 FEW016 SCT240 31/24 Q1012 RMK A2988
RPLL 160200Z 13007KT 070V180 9999 FEW025 33/22 Q1012 NOSIG RMK A2988
RPLL 160100Z 10008KT 060V160 9999 FEW025 32/21 Q1013 NOSIG RMK A2991
RPLL 160000Z 09007KT 060V130 9999 FEW025 30/22 Q1013 NOSIG RMK A2991

RPVM (CEB) – MACTAN-CEBU INTERNATIONAL AIRPORT
RPVM 171400Z 07007KT 9999 FEW020 30/24 Q1011 NOSIG RMK A2985
RPVM 171300Z 05013KT 9999 FEW020 30/24 Q1011 NOSIG RMK A2985
RPVM 171200Z 03009KT 9999 FEW020 30/24 Q1010 NOSIG RMK A2983
RPVM 171100Z 03006KT 9999 FEW020 30/24 Q1010 NOSIG RMK A2983
RPVM 171000Z 06005KT 9999 FEW020 31/23 Q1009 NOSIG RMK A2980
RPVM 170900Z 06007KT 9999 FEW020 31/23 Q1008 NOSIG RMK A2977
RPVM 170800Z 05008KT 9999 FEW020 32/23 Q1008 NOSIG RMK A2977
RPVM 170700Z 06009KT 9999 FEW020 32/23 Q1008 NOSIG RMK A2977
RPVM 170600Z 04009KT 9999 FEW020 32/23 Q1008 NOSIG RMK A2977
RPVM 170500Z 05008KT 9999 FEW020 32/23 Q1010 NOSIG RMK A2983
RPVM 170400Z 06009KT 9999 FEW020 32/24 Q1010 NOSIG RMK A2983
RPVM 170300Z 06008KT 9999 FEW020 31/24 Q1011 NOSIG RMK A2985
RPVM 170200Z 05007KT 010V080 9999 FEW020 SCT300 31/24 Q1011 NOSIG RMK A2985
RPVM 170100Z 06006KT 020V080 9999 FEW020 SCT300 30/24 Q1012 NOSIG RMK A2988
RPVM 170000Z 04006KT 010V070 9999 FEW020 30/24 Q1012 NOSIG RMK A2988
RPVM 162300Z 03006KT 360V060 9999 FEW020 SCT300 28/25 Q1011 NOSIG RMK A2985
RPVM 162200Z 36005KT 9999 FEW020 BKN300 28/24 Q1011 NOSIG RMK A2985
RPVM 162100Z 06007KT 9999 FEW020 SCT300 28/24 Q1010 NOSIG RMK A2983
RPVM 162000Z 06006KT 9999 FEW020 SCT300 28/24 Q1010 NOSIG RMK A2983
RPVM 161900Z 04009KT 9999 FEW020 BKN100 29/24 Q1010 NOSIG RMK A2983
RPVM 161800Z 06009KT 9999 FEW020 BKN100 29/24 Q1010 NOSIG RMK A2983
RPVM 161700Z 05008KT 030V090 9999 FEW020 BKN100 29/24 Q1011 NOSIG RMK A2985
RPVM 161600Z 05010KT 9999 FEW020 SCT300 29/25 Q1012 NOSIG RMK A2988
RPVM 161500Z 04010KT 9999 FEW020 29/24 Q1012 NOSIG RMK A2988
RPVM 161400Z 06007KT 9999 FEW020 29/25 Q1012 NOSIG RMK A2988 u0000u0000u0000u0000u0000u0000u0000
RPVM 161300Z 06010KT 9999 FEW020 SCT300 29/25 Q1011 NOSIG RMK A2985
RPVM 161200Z 05008KT 9999 FEW020 SCT300 30/25 Q1011 NOSIG RMK A2985
RPVM 161100Z 03006KT 9999 FEW020 SCT300 30/24 Q1010 NOSIG RMK A2983
RPVM 161000Z 05005KT 9999 FEW020 BKN300 30/24 Q1010 NOSIG RMK A2983
RPVM 160900Z 07006KT 9999 FEW020 BKN100 30/24 Q1010 NOSIG RMK A2983
RPVM 160800Z 06007KT 9999 FEW020 SCT100 BKN300 31/24 Q1009 NOSIG RMK A2980
RPVM 160700Z 05007KT 020V080 9999 FEW020 SCT300 32/23 Q1009 NOSIG RMK A2980
RPVM 160600Z 05006KT 020V090 9999 FEW020 SCT100 32/24 Q1010 NOSIG RMK A2983
RPVM 160500Z 05007KT 020V080 9999 FEW020 SCT300 34/24 Q1010 NOSIG RMK A2983
RPVM 160400Z 06008KT 020V090 9999 FEW020 31/24 Q1012 NOSIG RMK A2988
RPVM 160300Z 05008KT 020V080 9999 FEW020 31/24 Q1012 NOSIG RMK A2988
RPVM 160200Z 06009KT 9999 FEW020 SCT100 31/24 Q1013 NOSIG RMK A2991
RPVM 160100Z 05008KT 9999 FEW020 SCT3100 30/24 Q1013 NOSIG RMK A2991
RPVM 160000Z 03009KT 9999 FEW020 SCT300 29/24 Q1013 NOSIG RMK A2991

RPLC (CRK) – CLARK INTERNATIONAL AIRPORT
RPLC 171400Z 18004KT 9999 FEW020 29/22 Q1011 NOSIG RMK A2985
RPLC 171300Z 18002KT 9999 FEW020 SCT300 30/22 Q1011 NOSIG RMK A2985
RPLC 171200Z 18002KT 9000 FEW020 31/22 Q11010 NOSIG RMK A2983
RPLC 171100Z 14006KT 8000 FEW020 32/21 Q1009 NOSIG RMK A2980
RPLC 171000Z 18008KT 8000 FEW020 34/20 Q1008 NOSIG RMK A2977
RPLC 170900Z 20008KT 8000 FEW020 36/21 Q1008 NOSIG RMK A2977
RPLC 170800Z 18012KT 8000 FEW020 37/20 Q1007 NOSIG RMK A2974
RPLC 170700Z 14004KT 8000 FEW020 37/20 Q1008 NOSIG RMK A2977
RPLC 170600Z 09006KT 8000 FEW020 37/21 Q1008 NOSIG RMK A2977
RPLC 170500Z 09004KT 8000 FEW020 35/22 Q1009 NOSIG RMK A2980
RPLC 170400Z 34008KT 8000 FEW020 35/22 Q1011 NOSIG RMK A2985
RPLC 170300Z 04004KT 6000 FEW020 33/22 Q1012 NOSIG RMK A2988
RPLC 170200Z 16004KT 6000 FEW020 32/22 Q1012 NOSIG RMK A2988
RPLC 170000Z 16004KT 6000 FEW020 28/23 Q1013 NOSIG RMK A2991
RPLC 162300Z 27002KT 8000 FEW020 26/23 Q1012 NOSIG RMK A2988
RPLC 162200Z 25002KT 8000 FEW020 25/22 Q1012 NOSIG RMK A2988
RPLC 162100Z 24002KT 9999 FEW020 26/21 Q1011 NOSIG RMK A2985
RPLC 162000Z 21002KT 9999 FEW020 26/22 Q1011 NOSIG RMK A2985
RPLC 161900Z 24002KT 9999 FEW020 27/21 Q1010 NOSIG RMK A2983
RPLC 161800Z 32002KT 8000 FEW020 27/22 Q1011 NOSIG RMK A2985
RPLC 161700Z 32002KT 8000 FEW020 28/22 Q1011 NOSIG RMK A2985
RPLC 161600Z 31002KT 8000 FEW020 28/22 Q1012 NOSIG RMK A2988
RPLC 161500Z 31002KT 8000 FEW020 29/22 Q1012 NOSIG RMK A2988
RPLC 161400Z 16004KT 8000 FEW020 30/23 Q1012 NOSIG RMK A2988
RPLC 161300Z 22002KT 8000 FEW020 SCT100 31/21 Q1012 NOSIG RMK A2988
RPLC 161200Z 22004KT 8000 FEW020 31/22 Q1011 NOSIG RMK A2985
RPLC 161100Z 18006KT 8000 FEW020 32/21 Q1010 NOSIG RMK A2983
RPLC 161000Z 18010KT 8000 FEW020 34/22 Q1009 NOSIG RMK A2980
RPLC 160900Z 14008KT 8000 FEW020 36/20 Q1009 NOSIG RMK A2980
RPLC 160800Z 11008KT 8000 FEW020 38/20 Q1008 NOSIG RMK A2977
RPLC 160700Z 14004KT 8000 FEW020 38/20 Q1009 NOSIG RMK A2980
RPLC 160600Z 18004KT 8000 FEW020 37/21 Q1009 NOSIG RMK A2980
RPLC 160500Z 04012KT 6000 FEW020 36/21 Q1010 NOSIG RMK A2983
RPLC 160400Z 16006KT 6000 FEW020 35/21 Q1012 NOSIG RMK A2988
RPLC 160300Z 20004KT 6000 FEW020 33/21 Q1012 NOSIG RMK A2988
RPLC 160200Z 18008KT 6000 FEW020 32/21 Q1013 NOSIG RMK A2991
RPLC 160100Z 18004KT 8000 FEW020 30/23 Q1014 NOSIG RMK A2994
RPLC 160000Z 16006KT 8000 FEW020 28/24 Q1014 NOSIG RMK A2994

RPLB (SFS) – SUBIC BAY INTERNATIONAL AIRPORT
RPLB 171400Z VRB02KT 9999 FEW020 28/24 Q1011 NOSIG RMK A2988
RPLB 171300Z 01004KT 310V080 9999 FEW020 29/25 Q1010 NOSIG RMK A2983
RPLB 171200Z 34006KT 260V040 9999 FEW020 29/25 Q1010 NOSIG RMK A2983
RPLB 171100Z 34006KT 260V060 9999 FEW020 30/24 Q1009 NOSIG RMK A2980
RPLB 171000Z 34006KT 260V030 9999 FEW020 31/24 Q1009 NOSIG RMK A2980
RPLB 170900Z 16005KT 130V190 9999 FEW020 33/3 Q1008 NOSIG RMK A2977
RPLB 170800Z 22010KT 9999 FEW020 33/23 Q1008 NOSIG RMK A2977
RPLB 170700Z 22013KT 9999 FEW020 34/23 Q1008 NOSIG RMK A2977
RPLB 170600Z 22013KT 9999 FEW020 34/23 Q1008 NOSIG RMK A2977
RPLB 170500Z 22011KT 9999 FEW020 34/25 Q1009 NOSIG RMK A2980
RPLB 170400Z 07008KT 040V120 9999 FEW020 35/21 Q1010 NOSIG RMK A2983
RPLB 170300Z 10009KT 060V130 9999 FEW020 34/22 Q1011 NOSIG RMK A2985
RPLB 170200Z 07009KT 030V110 9999 FEW020 34/22 Q1012 NOSIG RMK A2988
RPLB 170000Z 05005KT 360V100 9999 FEW020 30/23 Q1013 NOSIG RMK A2991
RPLB 162300Z 05003KT 010V080 9999 FEW020 28/23 Q1012 NOSIG RMK A2988
RPLB 162200Z 06006KT 9999 FEW020 26/23 Q1011 NOSIG RMK A2985
RPLB 162100Z 05007KT 9999 FEW020 26/23 Q1010 NOSIG RMK A2983
RPLB 162000Z 04003KT 010V070 9999 FEW020 25/22 Q1010 NOSIG RMK A2983
RPLB 161900Z 05005KT 9999 FEW020 26/22 Q1010 NOSIG RMK A2983
RPLB 161800Z VRB02KT 9999 FEW020 27/22 Q1011 NOSIG RMK A2985
RPLB 161700Z VRB01KT 9999 FEW020 26/23 Q1011 NOSIG RMK A2985
RPLB 161600Z VRB02KT 9999 FEW020 27/24 Q1011 NOSIG RMK A2985
RPLB 161500Z 05003KT 010V070 9999 FEW020 28/25 Q1012 NOSIG RMK A2988
RPLB 161400Z 01004KT 300V050 9999 FEW020 29/25 Q1012 NOSIG RMK A2988
RPLB 161300Z 36005KT 320V070 0000 FEW020 29/25 Q1011 NOSIG RMK A2985
RPLB 161200Z 34006KT 290V040 9999 FEW020 30/25 Q1011 NOSIG RMK A2985
RPLB 161100Z 34006KT 34006KT 280V050 9999 FEW020 30/25 Q1010 NOSIG RMK A2983
RPLB 161000Z 34007KT 290V040 9999 FEW020 31/24 Q1010 NOSIG RMK A2983
RPLB 160900Z 33003KT 270V060 9999 FEW020 33/25 Q1009 NOSIG RMK A2980
RPLB 160800Z 21008KT 9999 FEW020 33/25 Q1009 NOSIG RMK A2980
RPLB 160700Z 22012KT 9999 FEW020 33/24 Q1009 NOSIG RMK A2980
RPLB 160600Z 22011KT 9999 FEW020 34/24 Q1009 NOSIG RMK A2980
RPLB 160500Z 22009KT 9999 FEW020 35/24 Q1010 NOSIG RMK A2983
RPLB 160400Z 07012KT 9999 FEW020 36/20 Q1011 NOSIG RMK A2985
RPLB 160300Z 05011KT 020V080 9999 FEW020 35/20 Q1012 NOSIG RMK A2988
RPLB 160200Z 07010KT 010V090 9999 FEW020 33/22 Q1013 NOSIG RMK A2991
RPLB 160100Z 05008KT 010V100 9999 FEW020 32/22 Q1013 NOSIG RMK A2991
RPLB 160000Z 05007KT 9999 FEW020 30/23 Q1013 NOSIG RMK A2991

RPLI (LAO) – LAOAG INTERNATIONAL AIRPORT
RPLI 171400Z 06002KT 9999 FEW018 SCT290 27/26 Q1011 NOSIG RMK A2985
RPLI 171300Z VRB02KT 9999 FEW018 28/26 Q1010 NOSIG RMK A2983
RPLI 171200Z 33001KT 9999 FEW018 28/26 Q1010 NOSIG RMK A2983
RPLI 171100Z VRB02KT 9999 FEW018 28/26 Q1009 NOSIG RMK A2980
RPLI 171000Z 33004KT 290V010 9999 FEW018 29/26 Q1008 RMK A2977- METAR RPMZ 171000Z 26007KT 230V290 9999 FEW016CB FEW017 29/26 Q1008 RMK A2977 CB NE
RPLI 170900Z 32006KT 9999 FEW018 30/26 Q1008 NOSIG RMK A2977
RPLI 170800Z 27005KT 210V310 9999 FEW018 30/26 Q1007 NOSIG RMK A2974
RPLI 170700Z 32005KT 270V010 9999 FEW018 31/26 Q1008 NOSIG RMK A2977
RPLI 170600Z 30006KT 240V360 9999 FEW018TCU 30/26 Q1008 NOSIG RMK A2977 TCU E
RPLI 170500Z 29007KT 250V330 9999 FEW018 30/26 Q1009 NOSIG RMK A2980
RPLI 170400Z 29006KT 260V320 9999 FEW018 31/26 Q1010 NOSIG RMK A2983
RPLI 170300Z 26007KT 220V310 9999 FEW018 31/26 Q1011 NOSIG RMK A2985
RPLI 170100Z 26004KT 210V300 9999 FEW018 30/25 Q1012 NOSIG RMK A2988
RPLI 170000Z VRB01KT 9999 FEW018 30/25 Q1011 NOSIG RMK A2985
RPLI 162300Z 08003KT 050V110 7000 FEW018 27/25 Q1011 NOSIG RMK A2985
RPLI 162200Z 02003KT 8000 FEW018 BKN290 25/24 Q1010 NOSIG RMK A2983
RPLI 162100Z 06002KT 9999 FEW018 26/24 Q1009 NOSIG RMK A2980
RPLI 162000Z 06003KT 9999 FEW018 26/24 Q1009 NOSIG RMK A2980
RPLI 161900Z 09003KT 9999 FEW018 26/25 Q1009 NOSIG RMK A2980
RPLI 161800Z VRB02KT 9999 FEW018 27/25 Q1010 NOSIG RMK A2983
RPLI 161500Z 03008KT 9999 BKN018 28/26 Q1011 NOSIG RMK A2985
RPLI 161400Z 36008KT 9999 FEW011 28/26 Q1011 NOSIG RMK A2985
RPLI 161300Z 35010KT 9999 BKN011 28/26 Q1011 NOSIG RMK A2985
RPLI 161200Z 34007KT 310V020 9999 SCT014 28/20 Q1011 NOSIG RMK A2985
RPLI 161100Z 33006KT 300V360 9999 SCT014 SCT070 29/26 Q1010 NOSIG RMK A2983
RPLI 161000Z 33005KT 300V360 9999 FEW018 29/26 Q1010 NOSIG RMK A2983
RPLI 160900Z 32006KT 280V350 9999 FEW018 30/26 Q1009 NOSIG RMK A2980
RPLI 160800Z 30008KT 270V330 9999 FEW018 30/27 Q1009 NOSIG RMK A2980
RPLI 160700Z 31005KT 270V350 9999 FEW018TCU 31/27 Q1009 NOSIG RMK A2980 TCU SE
RPLI 160600Z 29006KT 230V320 9999 FEW018 31/26 Q1009 NOSIG RMK A2980
RPLI 160500Z 25006KT 200V280 9999 FEW018 32/26 Q1010 NOSIG RMK A2983
RPLI 160400Z 32007KT 290V350 9999 FEW018 31/26 Q1010 NOSIG RMK A2983
RPLI 160300Z 32007KT 290V360 9999 FEW018 31/25 Q1011 RMK A2985
RPLI 160200Z 28005KT 250V320 9999 FEW018 30/23 Q1012 NOSIG RMK A2988
RPLI 160100Z 35004KT 330V040 9999 FEW018 32/22 Q1012 NOSIG RMK A2988
RPLI 160000Z VRB02KT 9000 FEW018 29/24 Q1012 NOSIG RMK A2988

RPVP (PPS) – PUERTO PRINCESA INTERNATIONAL AIRPORT
RPVP 171200Z 03006KT 9999 FEW019 30/26 Q1009 RMK A2980
RPVP 171100Z 06008KT 9999 FEW019 SCT250 31/26 Q1009 RMK A2980
RPVP 171000Z 06010KT 9999 FEW019 SCT250 31/26 Q1009 RMK A2980
RPVP 170900Z 06008KT 999 FEW019 SCT250 32/26 Q1008 RMK A2977
RPVP 170800Z 09006KT 9999 FEW019 SCT250 33/27 Q1008 RMK A2977
RPVP 170700Z 12010KT 9999 FEW019 SCT250 33/25 Q1008 RMK A2977
RPVP 170600Z 12012KT 9999 FEW019 SCT250 34/26 Q1008 RMK A2977
RPVP 170500Z 12010KT 9999 FEW019 SCT250 33/26 Q1009 RMK A2980
RPVP 170400Z 06014KT 9999 FEW019 SCT250 33/27 Q1010 RMK A2983
RPVP 170300Z 09014KT 9999 FEW019 SCT250 33/26 Q1011 RMK A2985
RPVP 170100Z 06012KT 9999 FEW019 32/26 Q1011 RMK A2985
RPVP 170000Z 06010KT 9999 FEW019 31/26 Q1011 RMK A2985
RPVP 162300Z 06010KT 9999 FEW019 28/25 Q1010 RMK A2983
RPVP 162200Z 06004KT 9999 FEW019 27/25 Q1009 RMK A2980
RPVP 162100Z 27004KT 9999 FEW020 27/25 Q1009 RMK A2980
RPVP 161800Z 12004KT 9999 SCT019 SCT080 28/26 Q1009 RMK A2980
RPVP 161500Z 09004KT 9999 FEW019 29/26 Q1011 RMK A2985
RPVP 161200Z 09006KT 9999 FEW019 30/26 Q1010 RMK A2983
RPVP 161100Z 09006KT 9999 FEW019 SCT080 30/26 Q1009 RMK A2980
RPVP 161000Z 09008KT 9999 FEW019 31/26 Q1009 RMK A2980
RPVP 160900Z 09006KT 9999 FEW019 32/26 Q1009 RMK A2980
RPVP 160800Z 12010KT 9999 FEW019 33/27 Q1008 RMK A2977
RPVP 160700Z 09012KT 9999 FEW019 34/26 Q1009 RMK A2980
RPVP 160600Z 09012KT 9999 FEW019 34/26 Q1009 RMK A2980
RPVP 160500Z 09012KT 9999 FEW019 34/26 Q1010 RMK A2983
RPVP 160400Z 12012KT 9999 FEW019 33/26 Q1011 RMK A2985
RPVP 160300Z 09012KT 9999 FEW019 33/25 Q1012 RMK A2988
RPVP 160200Z 09010KT 9999 FEW019 33/25 Q1012 RMK A2988
RPVP 160100Z 09012KT 9999 FEW019 32/25 Q1012 RMK A2988
RPVP 160000Z 03004KT 9999 FEW019 30/25 Q1012 RMK A2988

RPVD (DGT) – SIBULAN AIRPORT (DUMAGUETE AIRPORT)
RPVD 171200Z 32004KT 9999 FEW015 29/24 Q1009 RMK A2980
RPVD 170900Z 04006KT 9999 FEW024 31/24 Q1007 RMK A2974
RPVD 170800Z 04006KT 9999 FEW024 31/24 Q1007 RMK A2974
RPVD 170700Z 04008KT 9999 FEW024 31/24 Q1007 RMK A2974
RPVD 170600Z 07008KT 9999 FEW024 31/24 Q1007 RMK A2974
RPVD 170500Z 07006KT 9999 FEW024 31/23 Q1008 RMK A2977
RPVD 170400Z 09010KT 9999 FEW024 31/23 Q1009 RMK A2980
RPVD 170300Z 07008KT 9999 FEW024 30/25 Q1010 RMK A2983
RPVD 170100Z 07010KT 9999 FEW024 SCT070 31/25 Q1010 RMK A2983
RPVD 170000Z 04010KT 9999 FEW015 BKN070 29/24 Q1011 RMK A2985
RPVD 162100Z 04008KT 9999 SCT015 BKN070 28/25 Q1009 RMK A2980
RPVD 161800Z 00000KT 9999 FEW015 BKN070 28/25 Q1009 RMK A2980
RPVD 161500Z 00000KT 9999 FEW015 28/25 Q1010 RMK A2983
RPVD 161200Z 00000KT 9999 FEW015 29/25 Q1009 RMK A2980
RPVD 160800Z 07006KT 9999 FEW024 SCT220 30/25 Q1008 RMK A2977
RPVD 160700Z 07010KT 9999 FEW024 31/24 Q1008 RMK A2977
RPVD 160600Z 07010KT 9999 FEW024 31/24 Q1008 RMK A2977
RPVD 160500Z 07008KT 9999 FEW024 31/24 Q1009 RMK A2980
RPVD 160400Z 04008KT 9999 FEW024 31/24 9999 FEW024 31/24 Q1010 RMK A2983
RPVD 160300Z 04008KT 9999 FEW024 31/24 Q1011 RMK A2985
RPVD 160200Z 04008KT 9999 FEW024 31/24 Q1012 RMK A2988
RPVD 160100Z 34006KT 9999 FEW015 BKN070 30/23 Q1012 RMK A2988
RPVD 160000Z 36004KT 9999 FEW015 BKN070 29/24 Q1012 RMK A2988

RPMR (GES) – GENERAL SANTOS INTERNATIONAL AIRPORT
RPMR 170900Z 10003KT 030V140 9999 FEW018 BKN080 32/23 Q1007 RMK A2974
RPMR 170800Z VRB04KT 9999 FEW018 SCT250 32/23 Q1007 RMK A2974
RPMR 170700Z 07011KT 030V100 9999 FEW018 SCT080 34/23 Q1006 RMK A2971
RPMR 170600Z 06011KT 030V090 9999 FEW018 BKN250 34/21 Q1006 RMK A2971
RPMR 170500Z 05012KT 010V100 9999 FEW018 BKN250 34/21 Q1007 RMK A2974
RPMR 170400Z 06012KT 9999 FEW018 BKN250 34/21 Q1009 RMK A2980
RPMR 170300Z 05014KT 010V070 9999 FEW018 BKN080 35/21 Q1009 RMK A2980
RPMR 170100Z 04008KT 010V080 9999 FEW018 BKN080 30/22 Q1010 RMK A2983
RPMR 170000Z 03009KT 9999 FEW018 BKN080 29/22 Q1011 RMK A2985
RPMR 160800Z 10006KT 060V150 9999 FEW018 OVC080 31/21 Q1009 RMK A2980
RPMR 160700Z 04012KT 9999 FEW018 BKN080 32/20 Q1008 RMK A2977
RPMR 160600Z 04011KT 9999 FEW018 BKN080 34/19 Q1009 RMK A2980
RPMR 160500Z 06011KT 9999 FEW018 BKN080 35/20 Q1009 RMK A2980 u0000u0000u0000u0000u0000u0000u0000
RPMR 160400Z 04007KT 9999 FEW018 SCT080 BKN250 33/21 Q1010 RMK A2983
RPMR 160300Z 07009KT 040V100 9999 FEW018 SCT080 BKN250 32/22 Q1011 RMK A2985
RPMR 160200Z 04009KT 9999 FEW018 SCT080 OVC250 31/22 Q1012 RMK A2988
RPMR 160100Z 05005KT 9999 FEW018 SCT080 BKN250 31/22 Q1013 RMK A2991
RPMR 160000Z 04002KT 9999 FEW018 SCT080 BKN250 29/23 Q1012 RMK A2988

RPMD (DVO) – FRANCISCO BANGOY INTERNATIONAL AIRPORT
RPMD 171400Z 01003KT 330V040 9999 FEW015CB 28/23 Q1010 RMK A2983 CB WNW W/ LTG
RPMD 171300Z VRB02KT 9999 FEW016 28/24 Q1010 RMK A2983
RPMD 171200Z 24005KT 9999 FEW016 29/25 Q1009 RMK A2980
RPMD 171100Z 21006KT 9999 FEW016 29/24 Q1009 RMK A2980
RPMD 171000Z VRB02KT 9999 FEW016 SCT290 31/21 Q1008 RMK A2977
RPMD 170900Z 02004KT 350V050 9999 FEW016 BKN260 33/20 Q1007 RMK A2974
RPMD 170800Z 36006KT 320V040 9999 FEW016 BKN260 34/20 Q1006 RMK A2971
RPMD 170700Z 03011KT 360V060 9999 FEW016 BKN260 34/21 Q1006 RMK A2971
RPMD 170600Z 04012KT 360V060 9999 FEW016 SCT260 35/22 Q1006 RMK A2971
RPMD 170500Z 05011KT 9999 FEW016 SCT260 34/22 Q1007 RMK A2974
RPMD 170400Z 02008KT 350V070 9999 FEW020 SCT250 33/22 Q1008 RMK A2977
RPMD 170300Z 03010KT 350V060 9999 FEW020 SCT250 32/23 Q1010 RMK A2983
RPMD 170100Z 02011KT 9999 FEW020 SCT260 30/23 Q1011 RMK A2985
RPMD 170000Z 02009KT 9999 FEW020 30/24 Q1011 RMK A2985
RPMD 162300Z 02005KT 340V050 9999 FEW016 BKN260 27/25 Q1010 RMK A2983
RPMD 162200Z 34003KT 300V050 9999 FEW016 BKN260 26/26 Q1010 RMK A2983
RPMD 162100Z 04003KT 9999 FEW016 SCT290 25/25 Q1009 RMK A2980
RPMD 162000Z 02004KT 330V060 9999 FEW016 26/26 Q1009 RMK A2980
RPMD 161900Z 01003KT 340V050 9999 FEW016 26/25 Q1009 RMK A2980
RPMD 161800Z 02003KT 9999 FEW016 26/24 Q1010 RMK A2983
RPMD 161700Z 02004KT 9999 FEW016 27/24 Q1010 RMK A2983
RPMD 161600Z 01003KT 340V050 9999 FEW016 27/24 Q1011 RMK A2985
RPMD 161500Z 01003KT 340V040 9999 FEW016 SCT290 28/24 Q1011 RMK A2985
RPMD 161400Z 03004KT 9999 FEW016 27/23 Q1011 RMK A2985
RPMD 161300Z 36004KT 310V050 9999 FEW016 SCT290 28/23 Q1011 RMK A2985
RPMD 161200Z 35003KT 300V030 9999 FEW016 BKN260 29/23 Q1011 RMK A2985
RPMD 161100Z 33003KT 260V010 9999 FEW016 SCT090 BKN260 30/23 Q1010 RMK A2983
RPMD 161000Z 02004KT 340V050 9999 FEW015CB SCT090 BKN269 30/23 Q1010 RMK A2983 CB W
RPMD 160900Z 06007KT 9999 SCT016 BKN090 BKN260 31/23 Q1009 RMK A2980
RPMD 160800Z 34005KT 290V060 9999 FEW016 SCT090 BKN260 32/23 Q1008 RMK A2977
RPMD 160700Z 06008KT 010V090 9999 VCSH FEW015 SCT090 BKN250 33/22 Q1008 RMK A2977 VCSH S-SW
RPMD 160600Z 07006KT 030V110 9999 VCSHFEW015 BKN090 33/22 Q1008 RMK A2977 VCSH SE/S
RPMD 160500Z 03006KT 310V100 9999 VCSH FEW015 BKN090 32/23 Q1009 RMK A2980 VCSH SE/S
RPMD 160400Z 03008KT 9999 VCSH FEW015 BKN090 31/23 Q1010 RMK A2983 VCSH SE/S
RPMD 160300Z 02008KT 330V050 9999 VCSH FEW015 BKN090 31/23 Q1011 RMK A2985 VCSH SE/S
RPMD 160200Z 01009KT 330V040 9999 VCSH FEW015 BKN090 30/24 Q1012 RMK A2988 VCSH -SE
RPMD 160100Z 36007KT 300V040 9999 VCSH FEW015 BKN090 29/23 Q1012 RMK A2988 VCSH -SE
RPMD 160000Z 01006KT 340V040 9999 VCSH FEW015 BKN090 29/23 Q1012 RMK A2988 VCSH -SE

RPMZ (ZAM) – ZAMBOANGA INTERNATIONAL AIRPORT
RPMZ 171200Z 27004KT 230V310 9999 FEW017 28/25 Q1009 RMK A2980
RPMZ 171000Z 26007KT 230V290 9999 FEW016CB FEW017 29/26 Q1008 RMK A2977 CB NE
RPMZ 170900Z 27010KT 9999 FEW017TCU SCT300 30/26 Q1007 RMK A2974 TCU N
RPMZ 170800Z 27009KT 240V300 9999 FEW016CB FEW017 31/26 Q1007 RMK A2974 CB N
RPMZ 170700Z 26007KT 9999 FEW016CB FEW017 SCT090 30/24 Q1007 RMK A2974 CB N
RPMZ 170600Z 25007KT 170V300 9999 FEW016 BKN300 31/25 Q1007 RMK A2974
RPMZ 170500Z 11005KT 010V180 9999 FEW017 BKN300 30/26 Q1008 RMK A2977
RPMZ 170400Z VRB03KT 8000 FEW017 BKN300 32/25 Q1009 RMK A2980
RPMZ 170300Z 10004KT 060V130 8000 FEW016 BKN300 29/26 Q1010 RMK A2983
RPMZ 170200Z VRB02KT 9000 FEW017 BKN300 30/25 Q1010RMK A2983
RPMZ 170100Z VRB01KT 9000 FEW017 BKN300 29/26 Q1010 RMK A2983
RPMZ 170000Z VRB01KT 9999 FEW017 BKN300 27/25 Q1010 RMK A2983
RPMZ 162300Z VRB01KT 9999 FEW017 BKN300 26/24 Q1010 RMK A2983 u0000u0000u0000u0000u0000u0000u0000
RPMZ 162200Z VRB01KT 9999 FEW017 SCT090 BKN300 25/24 Q1009 RMK A2980
RPMZ 162100Z 00000KT 9999 FEW017 BKN090 25/24 Q1009 RMK A2980
RPMZ 161800Z VRB01KT 9999 FEW017 SCT090 26/24 Q1009 RMK A2980
RPMZ 161500Z 06001KT 9999 FEW017 SCT300 26/24 Q1011 RMK A2985
RPMZ 161200Z 26005KT 9999 FEW017 28/25 Q1010 RMK A2983
RPMZ 161000Z 25007KT 220V280 9999 FEW016CB FEW017 BKN300 29/25 Q1009 RMK A2980
RPMZ 160900Z 27009KT 9999 FEW017 BKN300 30/25 Q1008 RMK A2977 u0000u0000u0000u0000u0000u0000u0000u0000
RPMZ 160800Z 26009KT 230V290 9999 FEW017 BKN300 30/26 Q1008 RMK A2977
RPMZ 160700Z 26008KT 020V080 9999 FEW016CB FEW017 SCT300 31/25 Q1008 RMK A2977 CB N
RPMZ 160600Z 27009KT 9999 FEW016CB FEW017 SCT300 21/25 Q1009 RMK A2980 CB NW/NE
RPMZ 160500Z 25008KT 200V280 9999 FEW016CB FEW017 31/25 Q1011 RMK A2985 CB N
RPMZ 160400Z 28008KT 240V310 9999 FEW016CB FEW017 SCT090 31/25 Q1011 RESHRA RMK A2985 CB NW/NE
RPMZ 160300Z 24007KT 190V280 9999 FEW016CB FEW017 BKN090 29/26 Q1011 RMK A2985 CB NW/NE
RPMZ 160200Z 24004KT 180V290 9999 FEW016CB FEW017 BKN090 29/27 Q1011 RMK A2985 CB NW/NE
RPMZ 160100Z 21005KT 150V260 9999 FEW017 BKN090 29/27 Q1012 RMK A2988 CB NW/NE
RPMZ 160000Z 28004KT 230V320 9999 FEW017 BKN090 29/25 Q1012 RMK A2988